sensor_id;sensor_type;location;lat;lon;timestamp;pressure;altitude;pressure_sealevel;temperature;humidity
14269;BME280;7218;51.480;7.006;2023-04-15T00:01:05;99788.69;;;7.32;88.61
14269;BME280;7218;51.480;7.006;2023-04-15T00:03:32;99773.91;;;7.37;88.67
14269;BME280;7218;51.480;7.006;2023-04-15T00:05:58;99772.13;;;7.38;89.74
14269;BME280;7218;51.480;7.006;2023-04-15T00:08:25;99781.72;;;7.34;89.80
14269;BME280;7218;51.480;7.006;2023-04-15T00:10:53;99784.22;;;7.39;89.90
14269;BME280;7218;51.480;7.006;2023-04-15T00:13:20;99783.44;;;7.35;89.61
14269;BME280;7218;51.480;7.006;2023-04-15T00:15:46;99782.50;;;7.38;89.51
14269;BME280;7218;51.480;7.006;2023-04-15T00:18:13;99774.06;;;7.25;90.07
14269;BME280;7218;51.480;7.006;2023-04-15T00:20:39;99782.72;;;7.24;90.64
14269;BME280;7218;51.480;7.006;2023-04-15T00:23:06;99776.66;;;7.25;90.57
14269;BME280;7218;51.480;7.006;2023-04-15T00:25:32;99772.41;;;7.18;91.54
14269;BME280;7218;51.480;7.006;2023-04-15T00:28:00;99776.66;;;7.25;91.41
14269;BME280;7218;51.480;7.006;2023-04-15T00:30:27;99775.00;;;7.21;91.03
14269;BME280;7218;51.480;7.006;2023-04-15T00:32:53;99775.00;;;7.18;91.13
14269;BME280;7218;51.480;7.006;2023-04-15T00:35:19;99778.41;;;7.23;91.50
14269;BME280;7218;51.480;7.006;2023-04-15T00:37:48;99783.56;;;7.26;91.36
14269;BME280;7218;51.480;7.006;2023-04-15T00:40:16;99785.22;;;7.30;91.46
14269;BME280;7218;51.480;7.006;2023-04-15T00:42:43;99780.19;;;7.21;91.21
14269;BME280;7218;51.480;7.006;2023-04-15T00:45:12;99782.03;;;7.11;91.57
14269;BME280;7218;51.480;7.006;2023-04-15T00:47:40;99784.78;;;6.99;92.25
14269;BME280;7218;51.480;7.006;2023-04-15T00:50:07;99785.72;;;6.93;93.51
14269;BME280;7218;51.480;7.006;2023-04-15T00:52:34;99784.16;;;6.79;93.61
14269;BME280;7218;51.480;7.006;2023-04-15T00:55:01;99782.44;;;6.79;93.63
14269;BME280;7218;51.480;7.006;2023-04-15T00:57:29;99783.28;;;6.81;94.21
14269;BME280;7218;51.480;7.006;2023-04-15T00:59:56;99781.56;;;6.79;94.33
14269;BME280;7218;51.480;7.006;2023-04-15T01:02:24;99781.56;;;6.79;94.03
14269;BME280;7218;51.480;7.006;2023-04-15T01:04:51;99776.44;;;6.74;94.76
14269;BME280;7218;51.480;7.006;2023-04-15T01:07:18;99774.66;;;6.81;93.84
14269;BME280;7218;51.480;7.006;2023-04-15T01:09:44;99781.66;;;6.73;93.76
14269;BME280;7218;51.480;7.006;2023-04-15T01:12:13;99781.69;;;6.68;94.94
14269;BME280;7218;51.480;7.006;2023-04-15T01:14:40;99780.94;;;6.60;95.20
14269;BME280;7218;51.480;7.006;2023-04-15T01:17:07;99781.81;;;6.61;95.55
14269;BME280;7218;51.480;7.006;2023-04-15T01:19:36;99780.03;;;6.66;95.16
14269;BME280;7218;51.480;7.006;2023-04-15T01:22:03;99781.88;;;6.55;95.44
14269;BME280;7218;51.480;7.006;2023-04-15T01:24:31;99785.22;;;6.63;95.32
14269;BME280;7218;51.480;7.006;2023-04-15T01:26:59;99780.94;;;6.62;95.51
14269;BME280;7218;51.480;7.006;2023-04-15T01:29:26;99776.69;;;6.56;95.71
14269;BME280;7218;51.480;7.006;2023-04-15T01:31:54;99777.59;;;6.51;96.23
14269;BME280;7218;51.480;7.006;2023-04-15T01:34:21;99782.00;;;6.42;96.32
14269;BME280;7218;51.480;7.006;2023-04-15T01:36:48;99775.06;;;6.47;96.22
14269;BME280;7218;51.480;7.006;2023-04-15T01:39:15;99781.94;;;6.48;96.72
14269;BME280;7218;51.480;7.006;2023-04-15T01:41:42;99781.88;;;6.53;96.20
14269;BME280;7218;51.480;7.006;2023-04-15T01:44:10;99790.56;;;6.49;96.07
14269;BME280;7218;51.480;7.006;2023-04-15T01:46:36;99789.72;;;6.47;96.42
14269;BME280;7218;51.480;7.006;2023-04-15T01:49:03;99788.88;;;6.46;96.25
14269;BME280;7218;51.480;7.006;2023-04-15T01:51:29;99781.06;;;6.49;96.41
14269;BME280;7218;51.480;7.006;2023-04-15T01:53:56;99781.94;;;6.48;96.36
14269;BME280;7218;51.480;7.006;2023-04-15T01:56:22;99785.50;;;6.38;97.06
14269;BME280;7218;51.480;7.006;2023-04-15T01:58:49;99777.75;;;6.37;97.12
14269;BME280;7218;51.480;7.006;2023-04-15T02:01:17;99776.03;;;6.36;97.60
14269;BME280;7218;51.480;7.006;2023-04-15T02:03:45;99778.63;;;6.36;97.18
14269;BME280;7218;51.480;7.006;2023-04-15T02:06:11;99778.63;;;6.36;97.43
14269;BME280;7218;51.480;7.006;2023-04-15T02:08:38;99780.34;;;6.34;97.51
14269;BME280;7218;51.480;7.006;2023-04-15T02:11:05;99781.22;;;6.33;97.83
14269;BME280;7218;51.480;7.006;2023-04-15T02:13:31;99779.53;;;6.32;97.41
14269;BME280;7218;51.480;7.006;2023-04-15T02:15:58;99784.69;;;6.33;97.31
14269;BME280;7218;51.480;7.006;2023-04-15T02:18:26;99784.66;;;6.36;97.05
14269;BME280;7218;51.480;7.006;2023-04-15T02:20:52;99779.59;;;6.26;97.95
14269;BME280;7218;51.480;7.006;2023-04-15T02:23:18;99782.19;;;6.23;97.86
14269;BME280;7218;51.480;7.006;2023-04-15T02:25:45;99781.31;;;6.27;98.41
14269;BME280;7218;51.480;7.006;2023-04-15T02:28:11;99780.41;;;6.28;98.20
14269;BME280;7218;51.480;7.006;2023-04-15T02:30:38;99785.59;;;6.28;98.00
14269;BME280;7218;51.480;7.006;2023-04-15T02:33:05;99783.84;;;6.30;97.76
14269;BME280;7218;51.480;7.006;2023-04-15T02:35:33;99798.56;;;6.25;98.06
14269;BME280;7218;51.480;7.006;2023-04-15T02:38:03;99803.00;;;6.15;98.02
14269;BME280;7218;51.480;7.006;2023-04-15T02:40:29;99796.16;;;6.07;98.27
14269;BME280;7218;51.480;7.006;2023-04-15T02:42:56;99804.88;;;5.96;98.80
14269;BME280;7218;51.480;7.006;2023-04-15T02:45:23;99814.38;;;5.94;99.54
14269;BME280;7218;51.480;7.006;2023-04-15T02:47:51;99810.06;;;5.93;100.00
14269;BME280;7218;51.480;7.006;2023-04-15T02:50:18;99819.59;;;5.84;100.00
14269;BME280;7218;51.480;7.006;2023-04-15T02:52:46;99821.31;;;5.83;100.00
14269;BME280;7218;51.480;7.006;2023-04-15T02:55:12;99823.91;;;5.83;100.00
14269;BME280;7218;51.480;7.006;2023-04-15T02:57:39;99825.63;;;5.84;100.00
14269;BME280;7218;51.480;7.006;2023-04-15T03:00:06;99827.34;;;5.90;100.00
14269;BME280;7218;51.480;7.006;2023-04-15T03:02:35;99828.19;;;5.93;100.00
14269;BME280;7218;51.480;7.006;2023-04-15T03:05:02;99824.81;;;5.79;100.00
14269;BME280;7218;51.480;7.006;2023-04-15T03:07:30;99821.41;;;5.77;100.00
14269;BME280;7218;51.480;7.006;2023-04-15T03:09:57;99823.06;;;5.84;100.00
14269;BME280;7218;51.480;7.006;2023-04-15T03:12:24;99818.78;;;5.82;100.00
14269;BME280;7218;51.480;7.006;2023-04-15T03:14:50;99826.50;;;5.86;100.00
14269;BME280;7218;51.480;7.006;2023-04-15T03:17:17;99830.81;;;5.89;100.00
14269;BME280;7218;51.480;7.006;2023-04-15T03:19:43;99825.63;;;5.89;100.00
14269;BME280;7218;51.480;7.006;2023-04-15T03:22:10;99823.03;;;5.89;100.00
14269;BME280;7218;51.480;7.006;2023-04-15T03:24:36;99830.84;;;5.87;100.00
14269;BME280;7218;51.480;7.006;2023-04-15T03:27:04;99823.91;;;5.91;100.00
14269;BME280;7218;51.480;7.006;2023-04-15T03:29:32;99833.44;;;5.81;100.00
14269;BME280;7218;51.480;7.006;2023-04-15T03:31:58;99829.19;;;5.71;100.00
14269;BME280;7218;51.480;7.006;2023-04-15T03:34:25;99830.84;;;5.81;100.00
14269;BME280;7218;51.480;7.006;2023-04-15T03:36:51;99831.75;;;5.76;100.00
14269;BME280;7218;51.480;7.006;2023-04-15T03:39:18;99840.38;;;5.78;100.00
14269;BME280;7218;51.480;7.006;2023-04-15T03:41:44;99845.53;;;5.78;100.00
14269;BME280;7218;51.480;7.006;2023-04-15T03:44:12;99847.22;;;5.80;100.00
14269;BME280;7218;51.480;7.006;2023-04-15T03:46:38;99843.84;;;5.72;100.00
14269;BME280;7218;51.480;7.006;2023-04-15T03:49:05;99857.63;;;5.77;100.00
14269;BME280;7218;51.480;7.006;2023-04-15T03:51:32;99862.81;;;5.70;100.00
14269;BME280;7218;51.480;7.006;2023-04-15T03:53:59;99852.47;;;5.71;100.00
14269;BME280;7218;51.480;7.006;2023-04-15T03:56:26;99855.88;;;5.73;100.00
14269;BME280;7218;51.480;7.006;2023-04-15T03:58:52;99864.47;;;5.80;100.00
14269;BME280;7218;51.480;7.006;2023-04-15T04:01:20;99865.34;;;5.82;100.00
14269;BME280;7218;51.480;7.006;2023-04-15T04:03:47;99863.66;;;5.73;100.00
14269;BME280;7218;51.480;7.006;2023-04-15T04:06:13;99860.16;;;5.79;100.00
14269;BME280;7218;51.480;7.006;2023-04-15T04:08:41;99860.22;;;5.74;100.00
14269;BME280;7218;51.480;7.006;2023-04-15T04:11:07;99865.44;;;5.67;100.00
14269;BME280;7218;51.480;7.006;2023-04-15T04:13:34;99859.41;;;5.66;100.00
14269;BME280;7218;51.480;7.006;2023-04-15T04:16:00;99868.84;;;5.72;100.00
14269;BME280;7218;51.480;7.006;2023-04-15T04:18:30;99861.09;;;5.69;100.00
14269;BME280;7218;51.480;7.006;2023-04-15T04:20:56;99871.47;;;5.64;100.00
14269;BME280;7218;51.480;7.006;2023-04-15T04:23:23;99874.09;;;5.58;100.00
14269;BME280;7218;51.480;7.006;2023-04-15T04:25:49;99872.38;;;5.61;100.00
14269;BME280;7218;51.480;7.006;2023-04-15T04:28:16;99871.53;;;5.55;100.00
14269;BME280;7218;51.480;7.006;2023-04-15T04:30:43;99880.16;;;5.54;100.00
14269;BME280;7218;51.480;7.006;2023-04-15T04:33:10;99885.31;;;5.57;100.00
14269;BME280;7218;51.480;7.006;2023-04-15T04:35:38;99883.56;;;5.59;100.00
14269;BME280;7218;51.480;7.006;2023-04-15T04:38:04;99882.78;;;5.46;100.00
14269;BME280;7218;51.480;7.006;2023-04-15T04:40:31;99880.25;;;5.36;100.00
14269;BME280;7218;51.480;7.006;2023-04-15T04:42:57;99883.72;;;5.35;100.00
14269;BME280;7218;51.480;7.006;2023-04-15T04:45:24;99887.13;;;5.43;100.00
14269;BME280;7218;51.480;7.006;2023-04-15T04:47:50;99898.34;;;5.39;100.00
14269;BME280;7218;51.480;7.006;2023-04-15T04:50:16;99890.56;;;5.40;100.00
14269;BME280;7218;51.480;7.006;2023-04-15T04:52:44;99893.16;;;5.48;100.00
14269;BME280;7218;51.480;7.006;2023-04-15T04:55:11;99901.78;;;5.39;100.00
14269;BME280;7218;51.480;7.006;2023-04-15T04:57:37;99899.19;;;5.39;100.00
14269;BME280;7218;51.480;7.006;2023-04-15T05:00:05;99906.06;;;5.45;100.00
14269;BME280;7218;51.480;7.006;2023-04-15T05:02:33;99903.53;;;5.37;100.00
14269;BME280;7218;51.480;7.006;2023-04-15T05:05:00;99909.53;;;5.42;100.00
14269;BME280;7218;51.480;7.006;2023-04-15T05:07:26;99919.03;;;5.36;100.00
14269;BME280;7218;51.480;7.006;2023-04-15T05:09:54;99915.53;;;5.44;100.00
14269;BME280;7218;51.480;7.006;2023-04-15T05:12:21;99931.09;;;5.41;100.00
14269;BME280;7218;51.480;7.006;2023-04-15T05:14:47;99926.78;;;5.42;100.00
14269;BME280;7218;51.480;7.006;2023-04-15T05:17:14;99919.00;;;5.45;100.00
14269;BME280;7218;51.480;7.006;2023-04-15T05:19:40;99924.16;;;5.51;100.00
14269;BME280;7218;51.480;7.006;2023-04-15T05:22:07;99919.84;;;5.44;100.00
14269;BME280;7218;51.480;7.006;2023-04-15T05:24:33;99932.75;;;5.50;100.00
14269;BME280;7218;51.480;7.006;2023-04-15T05:27:01;99931.00;;;5.55;100.00
14269;BME280;7218;51.480;7.006;2023-04-15T05:29:27;99933.59;;;5.55;100.00
14269;BME280;7218;51.480;7.006;2023-04-15T05:31:54;99928.44;;;5.56;100.00
14269;BME280;7218;51.480;7.006;2023-04-15T05:34:21;99928.44;;;5.55;100.00
14269;BME280;7218;51.480;7.006;2023-04-15T05:36:47;99934.44;;;5.60;100.00
14269;BME280;7218;51.480;7.006;2023-04-15T05:39:13;99944.75;;;5.66;100.00
14269;BME280;7218;51.480;7.006;2023-04-15T05:41:40;99943.03;;;5.67;100.00
14269;BME280;7218;51.480;7.006;2023-04-15T05:44:08;99952.44;;;5.78;100.00
14269;BME280;7218;51.480;7.006;2023-04-15T05:46:34;99951.59;;;5.73;100.00
14269;BME280;7218;51.480;7.006;2023-04-15T05:49:01;99952.44;;;5.81;100.00
14269;BME280;7218;51.480;7.006;2023-04-15T05:51:27;99966.22;;;5.91;100.00
14269;BME280;7218;51.480;7.006;2023-04-15T05:53:54;99967.88;;;5.98;100.00
14269;BME280;7218;51.480;7.006;2023-04-15T05:56:20;99964.41;;;6.07;100.00
14269;BME280;7218;51.480;7.006;2023-04-15T05:58:47;99966.03;;;6.21;100.00
14269;BME280;7218;51.480;7.006;2023-04-15T06:01:14;99971.09;;;6.36;100.00
14269;BME280;7218;51.480;7.006;2023-04-15T06:03:41;99964.94;;;6.51;100.00
14269;BME280;7218;51.480;7.006;2023-04-15T06:06:08;99974.28;;;6.69;100.00
14269;BME280;7218;51.480;7.006;2023-04-15T06:08:34;99978.56;;;6.76;100.00
14269;BME280;7218;51.480;7.006;2023-04-15T06:11:01;99977.56;;;6.87;100.00
14269;BME280;7218;51.480;7.006;2023-04-15T06:13:28;99987.06;;;6.91;100.00
14269;BME280;7218;51.480;7.006;2023-04-15T06:15:54;99977.41;;;7.07;100.00
14269;BME280;7218;51.480;7.006;2023-04-15T06:18:22;99979.81;;;7.24;100.00
14269;BME280;7218;51.480;7.006;2023-04-15T06:20:48;99982.28;;;7.33;100.00
14269;BME280;7218;51.480;7.006;2023-04-15T06:23:15;99990.81;;;7.43;100.00
14269;BME280;7218;51.480;7.006;2023-04-15T06:25:42;99990.69;;;7.53;100.00
14269;BME280;7218;51.480;7.006;2023-04-15T06:28:08;99996.59;;;7.67;100.00
14269;BME280;7218;51.480;7.006;2023-04-15T06:30:35;99998.09;;;7.85;99.75
14269;BME280;7218;51.480;7.006;2023-04-15T06:33:02;100003.16;;;7.96;98.55
14269;BME280;7218;51.480;7.006;2023-04-15T06:35:31;100004.66;;;8.12;97.90
14269;BME280;7218;51.480;7.006;2023-04-15T06:37:57;100000.31;;;8.14;98.50
14269;BME280;7218;51.480;7.006;2023-04-15T06:40:24;100001.84;;;8.27;98.48
14269;BME280;7218;51.480;7.006;2023-04-15T06:42:50;100012.91;;;8.43;96.39
14269;BME280;7218;51.480;7.006;2023-04-15T06:45:17;100012.03;;;8.42;95.66
14269;BME280;7218;51.480;7.006;2023-04-15T06:47:43;100011.94;;;8.51;95.33
14269;BME280;7218;51.480;7.006;2023-04-15T06:50:10;100010.16;;;8.53;94.91
14269;BME280;7218;51.480;7.006;2023-04-15T06:52:38;100018.50;;;8.72;95.25
14269;BME280;7218;51.480;7.006;2023-04-15T06:55:05;100020.13;;;8.81;95.64
14269;BME280;7218;51.480;7.006;2023-04-15T06:57:32;100028.63;;;8.89;94.74
14269;BME280;7218;51.480;7.006;2023-04-15T06:59:58;100023.28;;;8.98;94.61
14269;BME280;7218;51.480;7.006;2023-04-15T07:02:25;100025.72;;;9.07;93.68
14269;BME280;7218;51.480;7.006;2023-04-15T07:04:51;100024.03;;;9.04;93.48
14269;BME280;7218;51.480;7.006;2023-04-15T07:07:18;100023.16;;;9.05;93.70
14269;BME280;7218;51.480;7.006;2023-04-15T07:09:46;100037.75;;;9.13;94.08
14269;BME280;7218;51.480;7.006;2023-04-15T07:12:12;100032.47;;;9.17;93.41
14269;BME280;7218;51.480;7.006;2023-04-15T07:14:39;100030.78;;;9.16;93.24
14269;BME280;7218;51.480;7.006;2023-04-15T07:17:05;100036.78;;;9.20;94.12
14269;BME280;7218;51.480;7.006;2023-04-15T07:19:32;100040.28;;;9.17;94.08
14269;BME280;7218;51.480;7.006;2023-04-15T07:21:59;100040.94;;;9.30;93.49
14269;BME280;7218;51.480;7.006;2023-04-15T07:24:25;100047.72;;;9.37;93.68
14269;BME280;7218;51.480;7.006;2023-04-15T07:26:53;100045.66;;;9.56;91.90
14269;BME280;7218;51.480;7.006;2023-04-15T07:29:20;100043.16;;;9.49;91.88
14269;BME280;7218;51.480;7.006;2023-04-15T07:31:46;100049.16;;;9.53;92.21
14269;BME280;7218;51.480;7.006;2023-04-15T07:34:13;100041.31;;;9.56;91.41
14269;BME280;7218;51.480;7.006;2023-04-15T07:36:40;100048.00;;;9.68;91.42
14269;BME280;7218;51.480;7.006;2023-04-15T07:39:07;100043.44;;;9.80;90.83
14269;BME280;7218;51.480;7.006;2023-04-15T07:41:33;100042.22;;;9.97;90.55
14269;BME280;7218;51.480;7.006;2023-04-15T07:44:01;100050.47;;;10.18;90.08
14269;BME280;7218;51.480;7.006;2023-04-15T07:46:28;100043.28;;;10.29;87.05
14269;BME280;7218;51.480;7.006;2023-04-15T07:48:54;100053.19;;;10.52;87.50
14269;BME280;7218;51.480;7.006;2023-04-15T07:51:21;100053.63;;;10.71;86.64
14269;BME280;7218;51.480;7.006;2023-04-15T07:53:48;100048.22;;;10.80;85.44
14269;BME280;7218;51.480;7.006;2023-04-15T07:56:15;100052.88;;;11.01;83.50
14269;BME280;7218;51.480;7.006;2023-04-15T07:58:42;100054.22;;;11.17;82.81
14269;BME280;7218;51.480;7.006;2023-04-15T08:01:10;100050.84;;;11.14;82.73
14269;BME280;7218;51.480;7.006;2023-04-15T08:03:36;100056.97;;;11.11;81.43
14269;BME280;7218;51.480;7.006;2023-04-15T08:06:03;100053.66;;;11.40;80.28
14269;BME280;7218;51.480;7.006;2023-04-15T08:08:30;100053.00;;;11.64;79.29
14269;BME280;7218;51.480;7.006;2023-04-15T08:10:57;100053.91;;;11.62;78.66
14269;BME280;7218;51.480;7.006;2023-04-15T08:13:24;100049.38;;;11.69;77.98
14269;BME280;7218;51.480;7.006;2023-04-15T08:15:56;100058.09;;;11.69;75.40
14269;BME280;7218;51.480;7.006;2023-04-15T08:18:40;100057.97;;;11.72;75.29
14269;BME280;7218;51.480;7.006;2023-04-15T08:21:06;100063.69;;;11.88;74.48
14269;BME280;7218;51.480;7.006;2023-04-15T08:23:33;100062.34;;;11.72;73.30
14269;BME280;7218;51.480;7.006;2023-04-15T08:26:00;100067.13;;;11.90;74.63
14269;BME280;7218;51.480;7.006;2023-04-15T08:28:26;100066.56;;;12.10;73.97
14269;BME280;7218;51.480;7.006;2023-04-15T08:30:53;100065.09;;;12.29;73.42
14269;BME280;7218;51.480;7.006;2023-04-15T08:33:19;100070.50;;;12.23;70.63
14269;BME280;7218;51.480;7.006;2023-04-15T08:35:47;100061.72;;;12.25;69.59
14269;BME280;7218;51.480;7.006;2023-04-15T08:38:14;100070.78;;;12.43;70.92
14269;BME280;7218;51.480;7.006;2023-04-15T08:40:42;100070.59;;;12.49;68.69
14269;BME280;7218;51.480;7.006;2023-04-15T08:43:11;100070.28;;;12.60;68.52
14269;BME280;7218;51.480;7.006;2023-04-15T08:45:38;100081.19;;;12.44;68.36
14269;BME280;7218;51.480;7.006;2023-04-15T08:48:05;100076.41;;;12.59;67.59
14269;BME280;7218;51.480;7.006;2023-04-15T08:50:33;100074.66;;;12.85;67.58
14269;BME280;7218;51.480;7.006;2023-04-15T08:53:01;100075.41;;;13.17;66.04
14269;BME280;7218;51.480;7.006;2023-04-15T08:55:29;100079.13;;;13.10;67.02
14269;BME280;7218;51.480;7.006;2023-04-15T08:57:58;100077.56;;;12.76;66.53
14269;BME280;7218;51.480;7.006;2023-04-15T09:00:26;100087.88;;;12.81;66.04
14269;BME280;7218;51.480;7.006;2023-04-15T09:02:54;100086.56;;;12.68;65.21
14269;BME280;7218;51.480;7.006;2023-04-15T09:05:21;100092.75;;;12.65;67.35
14269;BME280;7218;51.480;7.006;2023-04-15T09:07:47;100094.63;;;12.01;68.58
14269;BME280;7218;51.480;7.006;2023-04-15T09:10:17;100098.81;;;12.38;68.26
14269;BME280;7218;51.480;7.006;2023-04-15T09:12:43;100098.91;;;12.35;67.83
14269;BME280;7218;51.480;7.006;2023-04-15T09:15:10;100101.81;;;12.55;68.50
14269;BME280;7218;51.480;7.006;2023-04-15T09:17:41;100102.88;;;12.48;67.18
14269;BME280;7218;51.480;7.006;2023-04-15T09:20:09;100113.31;;;12.77;67.71
14269;BME280;7218;51.480;7.006;2023-04-15T09:22:37;100112.00;;;13.20;66.74
14269;BME280;7218;51.480;7.006;2023-04-15T09:25:25;100119.44;;;13.32;66.43
14269;BME280;7218;51.480;7.006;2023-04-15T09:27:53;100124.50;;;13.36;65.36
14269;BME280;7218;51.480;7.006;2023-04-15T09:30:20;100125.41;;;13.87;64.08
14269;BME280;7218;51.480;7.006;2023-04-15T09:32:49;100119.66;;;13.51;64.02
14269;BME280;7218;51.480;7.006;2023-04-15T09:35:16;100118.56;;;13.83;65.06
14269;BME280;7218;51.480;7.006;2023-04-15T09:37:42;100127.53;;;13.75;64.28
14269;BME280;7218;51.480;7.006;2023-04-15T09:40:10;100123.53;;;13.90;63.46
14269;BME280;7218;51.480;7.006;2023-04-15T09:42:53;100125.03;;;13.72;64.44
14269;BME280;7218;51.480;7.006;2023-04-15T09:45:20;100132.22;;;13.41;66.05
14269;BME280;7218;51.480;7.006;2023-04-15T09:47:47;100135.88;;;13.09;67.68
14269;BME280;7218;51.480;7.006;2023-04-15T09:50:15;100132.59;;;13.01;68.76
14269;BME280;7218;51.480;7.006;2023-04-15T09:52:43;100138.88;;;12.95;68.84
14269;BME280;7218;51.480;7.006;2023-04-15T09:55:11;100132.56;;;13.03;70.30
14269;BME280;7218;51.480;7.006;2023-04-15T09:58:16;100137.53;;;13.12;69.65
14269;BME280;7218;51.480;7.006;2023-04-15T10:00:44;100143.16;;;13.27;68.64
14269;BME280;7218;51.480;7.006;2023-04-15T10:03:13;100148.75;;;13.43;69.72
14269;BME280;7218;51.480;7.006;2023-04-15T10:05:40;100143.34;;;13.48;68.86
14269;BME280;7218;51.480;7.006;2023-04-15T10:08:07;100148.38;;;13.27;68.74
14269;BME280;7218;51.480;7.006;2023-04-15T10:10:35;100154.59;;;12.95;69.87
14269;BME280;7218;51.480;7.006;2023-04-15T10:13:02;100159.69;;;12.43;72.26
14269;BME280;7218;51.480;7.006;2023-04-15T10:15:31;100165.69;;;12.46;72.76
14269;BME280;7218;51.480;7.006;2023-04-15T10:17:59;100164.63;;;12.23;75.24
14269;BME280;7218;51.480;7.006;2023-04-15T10:20:27;100168.44;;;12.42;74.28
14269;BME280;7218;51.480;7.006;2023-04-15T10:22:55;100169.75;;;12.57;73.49
14269;BME280;7218;51.480;7.006;2023-04-15T10:25:22;100171.63;;;12.51;72.69
14269;BME280;7218;51.480;7.006;2023-04-15T10:27:50;100169.03;;;12.21;73.61
14269;BME280;7218;51.480;7.006;2023-04-15T10:30:17;100167.63;;;12.69;74.38
14269;BME280;7218;51.480;7.006;2023-04-15T10:32:46;100168.25;;;13.05;73.71
14269;BME280;7218;51.480;7.006;2023-04-15T10:35:14;100178.88;;;13.01;73.63
14269;BME280;7218;51.480;7.006;2023-04-15T10:37:42;100183.34;;;12.97;74.16
14269;BME280;7218;51.480;7.006;2023-04-15T10:40:28;100181.59;;;13.25;72.48
14269;BME280;7218;51.480;7.006;2023-04-15T10:42:57;100179.94;;;12.95;73.34
14269;BME280;7218;51.480;7.006;2023-04-15T10:45:25;100180.94;;;12.62;72.83
14269;BME280;7218;51.480;7.006;2023-04-15T10:47:55;100184.84;;;12.76;75.01
14269;BME280;7218;51.480;7.006;2023-04-15T10:50:25;100183.50;;;12.63;74.14
14269;BME280;7218;51.480;7.006;2023-04-15T10:52:53;100190.72;;;12.55;75.26
14269;BME280;7218;51.480;7.006;2023-04-15T10:55:22;100190.31;;;12.39;75.42
14269;BME280;7218;51.480;7.006;2023-04-15T10:57:51;100191.22;;;11.72;78.35
14269;BME280;7218;51.480;7.006;2023-04-15T11:00:20;100202.53;;;11.73;79.71
14269;BME280;7218;51.480;7.006;2023-04-15T11:02:52;100199.13;;;11.69;80.09
14269;BME280;7218;51.480;7.006;2023-04-15T11:05:21;100195.22;;;11.51;80.78
14269;BME280;7218;51.480;7.006;2023-04-15T11:07:51;100202.03;;;11.92;78.60
14269;BME280;7218;51.480;7.006;2023-04-15T11:10:52;100197.22;;;12.40;76.20
14269;BME280;7218;51.480;7.006;2023-04-15T11:13:23;100197.50;;;12.31;76.40
14269;BME280;7218;51.480;7.006;2023-04-15T11:15:55;100198.53;;;11.93;78.21
14269;BME280;7218;51.480;7.006;2023-04-15T11:18:27;100194.84;;;12.00;78.39
14269;BME280;7218;51.480;7.006;2023-04-15T11:20:57;100202.31;;;11.82;79.07
14269;BME280;7218;51.480;7.006;2023-04-15T11:23:29;100212.00;;;11.78;78.55
14269;BME280;7218;51.480;7.006;2023-04-15T11:25:57;100212.19;;;11.69;78.89
14269;BME280;7218;51.480;7.006;2023-04-15T11:28:25;100203.09;;;11.50;79.94
14269;BME280;7218;51.480;7.006;2023-04-15T11:30:52;100207.47;;;11.49;80.42
14269;BME280;7218;51.480;7.006;2023-04-15T11:33:20;100218.44;;;11.62;80.52
14269;BME280;7218;51.480;7.006;2023-04-15T11:35:49;100225.38;;;11.28;81.24
14269;BME280;7218;51.480;7.006;2023-04-15T11:38:17;100220.13;;;11.29;80.75
14269;BME280;7218;51.480;7.006;2023-04-15T11:40:44;100227.56;;;11.07;82.90
14269;BME280;7218;51.480;7.006;2023-04-15T11:43:12;100226.00;;;11.00;83.23
14269;BME280;7218;51.480;7.006;2023-04-15T11:45:48;100225.56;;;11.20;82.72
14269;BME280;7218;51.480;7.006;2023-04-15T11:48:16;100227.44;;;11.13;83.12
14269;BME280;7218;51.480;7.006;2023-04-15T11:50:42;100239.81;;;11.05;82.82
14269;BME280;7218;51.480;7.006;2023-04-15T11:53:12;100248.53;;;11.04;82.98
14269;BME280;7218;51.480;7.006;2023-04-15T11:55:45;100238.84;;;11.09;82.69
14269;BME280;7218;51.480;7.006;2023-04-15T11:58:13;100247.34;;;10.77;82.02
14269;BME280;7218;51.480;7.006;2023-04-15T12:00:45;100244.97;;;10.67;83.34
14269;BME280;7218;51.480;7.006;2023-04-15T12:03:23;100243.13;;;10.72;82.95
14269;BME280;7218;51.480;7.006;2023-04-15T12:06:07;100251.47;;;10.89;83.13
14269;BME280;7218;51.480;7.006;2023-04-15T12:09:03;100258.31;;;10.93;83.25
14269;BME280;7218;51.480;7.006;2023-04-15T12:11:33;100262.72;;;10.91;82.63
14269;BME280;7218;51.480;7.006;2023-04-15T12:14:12;100262.97;;;10.81;84.02
14269;BME280;7218;51.480;7.006;2023-04-15T12:16:40;100269.38;;;10.63;85.54
14269;BME280;7218;51.480;7.006;2023-04-15T12:19:09;100276.13;;;10.74;85.39
14269;BME280;7218;51.480;7.006;2023-04-15T12:21:38;100277.22;;;10.63;85.38
14269;BME280;7218;51.480;7.006;2023-04-15T12:24:06;100281.25;;;10.33;85.95
14269;BME280;7218;51.480;7.006;2023-04-15T12:26:36;100288.81;;;10.47;85.25
14269;BME280;7218;51.480;7.006;2023-04-15T12:29:04;100292.09;;;10.58;85.76
14269;BME280;7218;51.480;7.006;2023-04-15T12:31:32;100287.84;;;10.52;85.41
14269;BME280;7218;51.480;7.006;2023-04-15T12:34:00;100304.16;;;10.62;85.38
14269;BME280;7218;51.480;7.006;2023-04-15T12:36:27;100294.59;;;10.64;85.20
14269;BME280;7218;51.480;7.006;2023-04-15T12:38:54;100301.34;;;10.72;85.03
14269;BME280;7218;51.480;7.006;2023-04-15T12:41:21;100303.78;;;10.82;83.86
14269;BME280;7218;51.480;7.006;2023-04-15T12:43:50;100300.25;;;10.86;85.02
14269;BME280;7218;51.480;7.006;2023-04-15T12:46:16;100311.47;;;10.89;83.89
14269;BME280;7218;51.480;7.006;2023-04-15T12:48:43;100323.78;;;10.81;84.20
14269;BME280;7218;51.480;7.006;2023-04-15T12:51:09;100317.69;;;10.82;84.20
14269;BME280;7218;51.480;7.006;2023-04-15T12:53:36;100326.94;;;10.98;83.75
14269;BME280;7218;51.480;7.006;2023-04-15T12:56:03;100328.56;;;11.02;82.86
14269;BME280;7218;51.480;7.006;2023-04-15T12:58:29;100333.34;;;10.82;84.48
14269;BME280;7218;51.480;7.006;2023-04-15T13:00:57;100332.44;;;10.83;84.62
14269;BME280;7218;51.480;7.006;2023-04-15T13:03:23;100332.03;;;10.60;86.20
14269;BME280;7218;51.480;7.006;2023-04-15T13:05:50;100330.91;;;10.73;85.69
14269;BME280;7218;51.480;7.006;2023-04-15T13:08:17;100333.81;;;11.02;84.04
14269;BME280;7218;51.480;7.006;2023-04-15T13:10:43;100337.06;;;11.13;83.86
14269;BME280;7218;51.480;7.006;2023-04-15T13:13:10;100333.56;;;11.14;83.52